Time;durP1;ratioP1;P1;durP2;ratioP2;P2;SDS_P1;SDS_P2;PMS_P1;PMS_P2;Temp;Humidity;BMP_temperature;BMP_pressure;BME280_temperature;BME280_humidity;BME280_pressure;Samples;Min_cycle;Max_cycle;Signal;HPM_P1;HPM_P2
2023/11/10 00:01:53;;;;;;;2.55;1.20;;;;;;;;;;5044398;28;20049;-59
2023/11/10 00:04:20;;;;;;;2.70;1.70;;;;;;;;;;5045476;28;20045;-58
2023/11/10 00:06:46;;;;;;;1.60;1.30;;;;;;;;;;5047147;28;20049;-59
2023/11/10 00:09:16;;;;;;;3.85;2.00;;;;;;;;;;5046660;28;20518;-59
2023/11/10 00:11:42;;;;;;;2.78;1.80;;;;;;;;;;5047630;28;20033;-59
2023/11/10 00:14:08;;;;;;;2.00;1.77;;;;;;;;;;5046970;28;20419;-59
2023/11/10 00:16:34;;;;;;;3.22;2.10;;;;;;;;;;5046730;28;20037;-59
2023/11/10 00:19:03;;;;;;;2.45;1.90;;;;;;;;;;5047401;28;20536;-59
2023/11/10 00:21:29;;;;;;;3.83;2.03;;;;;;;;;;5051240;28;20048;-59
2023/11/10 00:23:55;;;;;;;2.95;2.30;;;;;;;;;;5051675;28;20033;-59
2023/11/10 00:26:23;;;;;;;3.30;2.63;;;;;;;;;;5050819;28;20040;-58
2023/11/10 00:28:50;;;;;;;4.80;2.78;;;;;;;;;;5050591;28;20516;-58
2023/11/10 00:31:19;;;;;;;6.30;2.25;;;;;;;;;;5050753;28;20056;-58
2023/11/10 00:33:52;;;;;;;3.88;2.30;;;;;;;;;;5051543;28;20040;-59
2023/11/10 00:36:18;;;;;;;3.85;2.17;;;;;;;;;;5047004;28;20044;-59
2023/11/10 00:38:47;;;;;;;4.72;2.42;;;;;;;;;;5050630;28;20406;-58
2023/11/10 00:41:14;;;;;;;3.83;2.22;;;;;;;;;;5050990;28;20052;-58
2023/11/10 00:43:41;;;;;;;4.75;2.88;;;;;;;;;;5050583;28;20044;-59
2023/11/10 00:46:07;;;;;;;3.90;2.53;;;;;;;;;;5050297;28;20044;-58
2023/11/10 00:48:34;;;;;;;3.38;2.72;;;;;;;;;;5048731;28;20040;-58
2023/11/10 00:51:00;;;;;;;4.63;2.50;;;;;;;;;;5049801;28;20502;-58
2023/11/10 00:53:26;;;;;;;4.95;2.35;;;;;;;;;;5047255;28;20053;-58
2023/11/10 00:55:56;;;;;;;2.97;2.05;;;;;;;;;;5049454;28;20032;-58
2023/11/10 00:58:22;;;;;;;3.13;2.33;;;;;;;;;;5049636;28;20035;-58
2023/11/10 01:00:48;;;;;;;2.47;2.00;;;;;;;;;;5050591;28;20040;-58
2023/11/10 01:03:14;;;;;;;3.88;2.10;;;;;;;;;;5049280;28;20040;-58
2023/11/10 01:05:45;;;;;;;4.22;2.38;;;;;;;;;;5049208;28;20049;-58
2023/11/10 01:08:11;;;;;;;6.43;2.25;;;;;;;;;;5050025;28;20040;-58
2023/11/10 01:10:37;;;;;;;5.63;1.90;;;;;;;;;;5050375;28;20033;-58
2023/11/10 01:13:06;;;;;;;3.28;2.25;;;;;;;;;;5046996;28;20047;-58
2023/11/10 01:15:32;;;;;;;4.90;2.20;;;;;;;;;;5049281;28;20514;-58
2023/11/10 01:17:58;;;;;;;3.63;2.22;;;;;;;;;;5048457;28;20064;-59
2023/11/10 01:20:24;;;;;;;4.97;2.45;;;;;;;;;;5049721;28;20033;-59
2023/11/10 01:22:50;;;;;;;5.40;2.20;;;;;;;;;;5029047;28;20064;-59
2023/11/10 01:25:16;;;;;;;4.43;2.20;;;;;;;;;;5047946;28;20040;-59
2023/11/10 01:27:43;;;;;;;5.20;2.78;;;;;;;;;;5044820;28;20033;-59
2023/11/10 01:30:10;;;;;;;4.03;2.05;;;;;;;;;;5043091;28;20044;-59
2023/11/10 01:32:37;;;;;;;2.45;1.83;;;;;;;;;;5049957;28;20037;-59
2023/11/10 01:35:04;;;;;;;4.80;2.50;;;;;;;;;;5048711;28;20411;-59
2023/11/10 01:37:30;;;;;;;5.68;2.63;;;;;;;;;;5044754;28;20052;-59
2023/11/10 01:39:57;;;;;;;4.55;2.90;;;;;;;;;;5047301;28;20048;-59
2023/11/10 01:42:23;;;;;;;7.85;3.65;;;;;;;;;;5049378;28;20406;-59
2023/11/10 01:44:49;;;;;;;7.07;3.30;;;;;;;;;;5048996;28;20045;-59
2023/11/10 01:47:15;;;;;;;7.18;3.38;;;;;;;;;;5047760;28;20483;-59
2023/11/10 01:49:43;;;;;;;6.65;3.03;;;;;;;;;;5048916;28;20029;-59
2023/11/10 01:52:09;;;;;;;5.40;2.90;;;;;;;;;;5044981;28;20499;-59
2023/11/10 01:54:36;;;;;;;4.53;3.00;;;;;;;;;;5046604;28;20049;-59
2023/11/10 01:57:03;;;;;;;4.80;2.78;;;;;;;;;;5044946;28;20032;-59
2023/11/10 01:59:32;;;;;;;5.85;2.70;;;;;;;;;;5045213;28;20041;-59
2023/11/10 02:01:58;;;;;;;4.43;2.55;;;;;;;;;;5049713;28;20041;-59
2023/11/10 02:04:25;;;;;;;4.50;2.70;;;;;;;;;;5048143;28;20044;-58
2023/11/10 02:06:52;;;;;;;4.82;2.80;;;;;;;;;;5046925;28;20036;-59
2023/11/10 02:09:18;;;;;;;4.53;2.90;;;;;;;;;;5046394;28;20055;-58
2023/11/10 02:11:45;;;;;;;3.60;2.80;;;;;;;;;;5048346;28;20049;-58
2023/11/10 02:14:12;;;;;;;3.15;2.25;;;;;;;;;;5047746;28;20448;-58
2023/11/10 02:16:39;;;;;;;3.80;2.60;;;;;;;;;;5048716;28;20024;-59
2023/11/10 02:19:07;;;;;;;4.00;2.80;;;;;;;;;;5048908;28;20033;-59
2023/11/10 02:21:33;;;;;;;4.78;2.70;;;;;;;;;;5046954;28;20032;-59
2023/11/10 02:24:04;;;;;;;4.93;2.22;;;;;;;;;;5047802;28;20048;-59
2023/11/10 02:26:30;;;;;;;3.10;1.95;;;;;;;;;;5048429;28;20049;-59
2023/11/10 02:28:56;;;;;;;4.95;1.90;;;;;;;;;;5047922;28;20037;-59
2023/11/10 02:31:22;;;;;;;3.08;2.05;;;;;;;;;;5048752;28;20045;-59
2023/11/10 02:33:48;;;;;;;3.63;2.10;;;;;;;;;;5047942;28;20045;-59
2023/11/10 02:36:14;;;;;;;7.75;1.92;;;;;;;;;;5048554;28;20060;-59
2023/11/10 02:38:44;;;;;;;4.55;1.67;;;;;;;;;;5048234;28;20106;-59
2023/11/10 02:41:10;;;;;;;2.65;1.60;;;;;;;;;;5048681;28;20061;-59
2023/11/10 02:43:36;;;;;;;1.58;1.27;;;;;;;;;;5047865;28;20509;-59
2023/11/10 02:46:03;;;;;;;4.13;1.50;;;;;;;;;;5043396;28;20040;-59
2023/11/10 02:48:29;;;;;;;3.60;1.80;;;;;;;;;;5039430;28;20042;-60
2023/11/10 02:50:55;;;;;;;1.50;1.20;;;;;;;;;;5047210;28;20387;-58
2023/11/10 02:53:21;;;;;;;2.28;1.40;;;;;;;;;;5044343;28;20052;-58
2023/11/10 02:55:47;;;;;;;1.95;1.40;;;;;;;;;;5040552;28;20037;-58
2023/11/10 02:58:15;;;;;;;2.67;1.50;;;;;;;;;;5039660;28;20045;-58
2023/11/10 03:00:42;;;;;;;3.85;1.50;;;;;;;;;;5044309;28;20681;-58
2023/11/10 03:03:11;;;;;;;4.55;1.50;;;;;;;;;;5047726;28;20033;-58
2023/11/10 03:05:39;;;;;;;1.83;1.43;;;;;;;;;;5045359;28;20052;-58
2023/11/10 03:08:05;;;;;;;2.03;0.82;;;;;;;;;;5044574;28;20055;-58
2023/11/10 03:10:32;;;;;;;0.90;0.80;;;;;;;;;;5045238;28;20841;-58
2023/11/10 03:12:59;;;;;;;1.73;0.70;;;;;;;;;;5048270;28;20494;-60
2023/11/10 03:15:27;;;;;;;1.00;0.65;;;;;;;;;;5040448;28;20055;-59
2023/11/10 03:17:57;;;;;;;1.45;0.50;;;;;;;;;;5045293;28;20036;-58
2023/11/10 03:20:23;;;;;;;1.80;0.80;;;;;;;;;;5047645;28;20057;-58
2023/11/10 03:22:50;;;;;;;0.43;0.43;;;;;;;;;;5043644;28;20506;-58
2023/11/10 03:25:16;;;;;;;1.70;0.93;;;;;;;;;;5035337;28;20068;-58
2023/11/10 03:27:42;;;;;;;0.82;0.43;;;;;;;;;;5044337;28;20048;-58
2023/11/10 03:30:09;;;;;;;0.50;0.50;;;;;;;;;;5046434;28;20029;-58
2023/11/10 03:32:35;;;;;;;1.45;0.50;;;;;;;;;;5047776;28;20040;-58
2023/11/10 03:35:03;;;;;;;0.60;0.50;;;;;;;;;;5046619;28;20049;-58
2023/11/10 03:37:29;;;;;;;3.53;0.65;;;;;;;;;;5046071;28;20506;-59
2023/11/10 03:39:55;;;;;;;0.77;0.40;;;;;;;;;;5047213;28;20048;-59
2023/11/10 03:42:21;;;;;;;0.88;0.40;;;;;;;;;;5046064;28;20541;-59
2023/11/10 03:44:47;;;;;;;0.98;0.50;;;;;;;;;;5044887;28;20732;-59
2023/11/10 03:47:14;;;;;;;1.38;0.40;;;;;;;;;;5047642;28;20060;-58
2023/11/10 03:49:40;;;;;;;0.55;0.35;;;;;;;;;;5045080;28;20036;-58
2023/11/10 03:52:07;;;;;;;1.65;0.40;;;;;;;;;;5043088;28;20048;-58
2023/11/10 03:54:33;;;;;;;0.45;0.30;;;;;;;;;;5047220;28;20049;-58
2023/11/10 03:56:59;;;;;;;0.43;0.40;;;;;;;;;;5043394;28;20060;-58
2023/11/10 03:59:25;;;;;;;0.65;0.47;;;;;;;;;;5042936;28;20052;-58
2023/11/10 04:01:51;;;;;;;0.60;0.52;;;;;;;;;;5047702;28;21078;-58
2023/11/10 04:04:17;;;;;;;1.20;0.50;;;;;;;;;;5047872;28;20044;-59
2023/11/10 04:06:44;;;;;;;1.65;0.40;;;;;;;;;;5042559;28;20048;-58
2023/11/10 04:09:14;;;;;;;1.45;0.40;;;;;;;;;;5046829;28;20429;-59
2023/11/10 04:11:40;;;;;;;0.50;0.40;;;;;;;;;;5046515;28;20029;-59
2023/11/10 04:14:07;;;;;;;0.40;0.40;;;;;;;;;;5046714;28;20409;-59
2023/11/10 04:16:33;;;;;;;0.73;0.47;;;;;;;;;;5045920;28;20045;-59
2023/11/10 04:18:59;;;;;;;1.85;0.60;;;;;;;;;;5040878;28;20025;-59
2023/11/10 04:21:29;;;;;;;0.30;0.30;;;;;;;;;;5046879;28;20048;-58
2023/11/10 04:23:57;;;;;;;0.30;0.30;;;;;;;;;;5047636;28;20125;-58
2023/11/10 04:26:23;;;;;;;0.63;0.20;;;;;;;;;;5046667;28;20044;-59
2023/11/10 04:28:49;;;;;;;0.55;0.45;;;;;;;;;;5044470;28;20515;-58
2023/11/10 04:31:16;;;;;;;0.77;0.50;;;;;;;;;;5047315;28;20486;-59
2023/11/10 04:33:45;;;;;;;0.50;0.40;;;;;;;;;;5045735;28;20040;-58
2023/11/10 04:36:12;;;;;;;1.17;0.40;;;;;;;;;;5045246;28;20056;-58
2023/11/10 04:38:40;;;;;;;1.58;0.57;;;;;;;;;;5046439;28;20418;-59
2023/11/10 04:41:08;;;;;;;0.38;0.38;;;;;;;;;;5047445;28;20076;-58
2023/11/10 04:43:34;;;;;;;1.75;0.50;;;;;;;;;;5045595;28;20498;-59
2023/11/10 04:46:04;;;;;;;0.40;0.40;;;;;;;;;;5046434;28;20049;-58
2023/11/10 04:48:30;;;;;;;;;;;;;;;;;;5043124;28;20037;-59
2023/11/10 04:50:56;;;;;;;0.95;0.55;;;;;;;;;;5046889;28;19913;-58
2023/11/10 04:53:22;;;;;;;0.80;0.40;;;;;;;;;;5042464;28;20506;-58
2023/11/10 04:55:48;;;;;;;1.42;0.25;;;;;;;;;;5046965;28;20522;-58
2023/11/10 04:58:15;;;;;;;0.57;0.20;;;;;;;;;;5045954;28;20037;-58
2023/11/10 05:00:41;;;;;;;0.73;0.47;;;;;;;;;;5044243;28;20037;-58
2023/11/10 05:03:07;;;;;;;0.90;0.40;;;;;;;;;;5046833;28;20662;-58
2023/11/10 05:05:36;;;;;;;2.55;0.85;;;;;;;;;;5045588;28;20063;-58
2023/11/10 05:08:03;;;;;;;0.68;0.63;;;;;;;;;;5049148;28;20036;-59
2023/11/10 05:10:32;;;;;;;0.57;0.40;;;;;;;;;;5050437;28;20421;-59
2023/11/10 05:12:58;;;;;;;0.65;0.55;;;;;;;;;;5046262;28;20049;-59
2023/11/10 05:15:24;;;;;;;1.85;0.35;;;;;;;;;;5049667;28;20052;-61
2023/11/10 05:17:50;;;;;;;3.58;1.40;;;;;;;;;;5050059;28;20040;-59
2023/11/10 05:20:17;;;;;;;2.20;0.45;;;;;;;;;;5048390;28;20037;-61
2023/11/10 05:22:46;;;;;;;0.80;0.60;;;;;;;;;;5048427;28;20395;-58
2023/11/10 05:25:12;;;;;;;2.20;1.17;;;;;;;;;;5048978;28;20048;-58
2023/11/10 05:27:39;;;;;;;4.28;2.45;;;;;;;;;;5049077;28;20056;-58
2023/11/10 05:30:07;;;;;;;5.72;2.20;;;;;;;;;;5049855;28;20041;-59
2023/11/10 05:32:34;;;;;;;4.50;2.07;;;;;;;;;;5047819;28;20528;-59
2023/11/10 05:35:01;;;;;;;2.05;0.80;;;;;;;;;;5049924;28;20490;-59
2023/11/10 05:37:28;;;;;;;1.55;0.60;;;;;;;;;;5048413;28;20040;-58
2023/11/10 05:39:54;;;;;;;2.17;0.85;;;;;;;;;;5047455;28;20045;-60
2023/11/10 05:42:21;;;;;;;2.85;0.95;;;;;;;;;;5045645;28;20733;-58
2023/11/10 05:44:48;;;;;;;2.50;1.10;;;;;;;;;;5042267;28;20506;-58
2023/11/10 05:47:14;;;;;;;2.78;1.20;;;;;;;;;;5039442;28;20155;-59
2023/11/10 05:49:41;;;;;;;2.28;1.38;;;;;;;;;;5048073;28;20055;-60
2023/11/10 05:52:09;;;;;;;3.50;1.45;;;;;;;;;;5045511;28;20045;-60
2023/11/10 05:54:35;;;;;;;1.95;1.23;;;;;;;;;;5049636;28;20056;-57
2023/11/10 05:57:02;;;;;;;2.97;1.58;;;;;;;;;;5049135;28;20051;-59
2023/11/10 05:59:28;;;;;;;3.15;1.98;;;;;;;;;;5047471;28;20029;-58
2023/11/10 06:01:57;;;;;;;3.35;1.80;;;;;;;;;;5049897;28;20044;-58
2023/11/10 06:04:24;;;;;;;2.35;1.45;;;;;;;;;;5049021;28;20529;-59
2023/11/10 06:06:50;;;;;;;2.45;0.85;;;;;;;;;;5048913;28;20102;-59
2023/11/10 06:09:17;;;;;;;0.65;0.65;;;;;;;;;;5042826;28;20064;-58
2023/11/10 06:11:46;;;;;;;0.88;0.70;;;;;;;;;;5046692;28;20052;-58
2023/11/10 06:14:12;;;;;;;0.63;0.60;;;;;;;;;;5045651;28;20771;-58
2023/11/10 06:16:39;;;;;;;0.73;0.60;;;;;;;;;;5044329;28;20029;-58
2023/11/10 06:19:07;;;;;;;0.60;0.60;;;;;;;;;;5043423;28;20037;-58
2023/11/10 06:21:34;;;;;;;0.80;0.60;;;;;;;;;;5048879;28;20056;-58
2023/11/10 06:24:01;;;;;;;1.35;0.70;;;;;;;;;;5048871;28;20041;-58
2023/11/10 06:26:28;;;;;;;1.17;0.70;;;;;;;;;;5048391;28;20057;-58
2023/11/10 06:28:56;;;;;;;9.40;4.63;;;;;;;;;;5047979;28;20048;-58
2023/11/10 06:31:25;;;;;;;7.32;3.42;;;;;;;;;;5046661;28;20052;-57
2023/11/10 06:33:51;;;;;;;6.07;2.63;;;;;;;;;;5044532;28;20052;-59
2023/11/10 06:36:19;;;;;;;3.75;1.50;;;;;;;;;;5044188;28;20506;-58
2023/11/10 06:38:46;;;;;;;3.13;1.23;;;;;;;;;;5047579;28;20052;-58
2023/11/10 06:41:14;;;;;;;2.50;0.70;;;;;;;;;;5048831;28;20037;-59
2023/11/10 06:43:45;;;;;;;3.35;1.60;;;;;;;;;;5047092;28;20510;-59
2023/11/10 06:46:19;;;;;;;5.20;2.17;;;;;;;;;;5043059;28;20542;-59
2023/11/10 06:48:47;;;;;;;2.03;0.80;;;;;;;;;;5043291;28;20056;-58
2023/11/10 06:51:13;;;;;;;1.33;0.90;;;;;;;;;;5047473;28;20597;-58
2023/11/10 06:53:39;;;;;;;1.25;0.70;;;;;;;;;;5047341;28;20055;-59
2023/11/10 06:56:05;;;;;;;1.70;0.40;;;;;;;;;;5044388;28;20048;-58
2023/11/10 06:58:31;;;;;;;0.50;0.50;;;;;;;;;;5043594;28;20071;-59
2023/11/10 07:01:00;;;;;;;0.30;0.30;;;;;;;;;;5047513;28;20036;-59
2023/11/10 07:03:26;;;;;;;0.70;0.40;;;;;;;;;;5047072;28;20068;-59
2023/11/10 07:05:53;;;;;;;0.30;0.30;;;;;;;;;;5045635;28;20291;-58
2023/11/10 07:08:20;;;;;;;0.40;0.40;;;;;;;;;;5046418;28;20036;-58
2023/11/10 07:10:51;;;;;;;2.05;0.80;;;;;;;;;;5047041;28;20032;-59
2023/11/10 07:13:18;;;;;;;2.55;1.40;;;;;;;;;;5043970;28;20101;-58
2023/11/10 07:15:45;;;;;;;5.35;1.90;;;;;;;;;;5045214;28;20044;-58
2023/11/10 07:18:11;;;;;;;5.45;1.63;;;;;;;;;;5047261;28;20041;-58
2023/11/10 07:20:42;;;;;;;2.03;1.00;;;;;;;;;;5047295;28;20418;-58
2023/11/10 07:23:08;;;;;;;1.55;0.70;;;;;;;;;;5044997;28;20053;-58
2023/11/10 07:25:34;;;;;;;3.78;1.42;;;;;;;;;;5045254;28;20409;-59
2023/11/10 07:28:00;;;;;;;0.88;0.68;;;;;;;;;;5041116;28;20064;-59
2023/11/10 07:30:28;;;;;;;1.02;0.65;;;;;;;;;;5045858;28;20041;-57
2023/11/10 07:32:54;;;;;;;4.03;2.05;;;;;;;;;;5047599;28;20589;-58
2023/11/10 07:35:21;;;;;;;17.70;5.38;;;;;;;;;;5047284;28;20053;-59
2023/11/10 07:37:48;;;;;;;27.80;7.28;;;;;;;;;;5045500;28;20056;-59
2023/11/10 07:40:15;;;;;;;9.38;2.45;;;;;;;;;;5043165;28;20045;-59
2023/11/10 07:42:42;;;;;;;9.10;1.65;;;;;;;;;;5042021;28;20041;-59
2023/11/10 07:45:14;;;;;;;2.20;0.90;;;;;;;;;;5046963;28;20033;-59
2023/11/10 07:47:45;;;;;;;1.90;0.50;;;;;;;;;;5043004;28;20052;-58
2023/11/10 07:50:13;;;;;;;4.30;0.60;;;;;;;;;;5044915;28;20052;-58
2023/11/10 07:52:39;;;;;;;2.15;1.20;;;;;;;;;;5046901;28;20071;-59
2023/11/10 07:55:06;;;;;;;3.90;1.48;;;;;;;;;;5039672;28;20051;-58
2023/11/10 07:57:33;;;;;;;1.50;0.90;;;;;;;;;;5042787;28;20060;-58
2023/11/10 08:00:01;;;;;;;0.93;0.60;;;;;;;;;;5046093;28;20032;-58
2023/11/10 08:02:27;;;;;;;0.95;0.70;;;;;;;;;;5046100;28;20411;-58
2023/11/10 08:04:53;;;;;;;3.67;1.70;;;;;;;;;;5047394;28;20045;-59
2023/11/10 08:07:20;;;;;;;1.70;0.70;;;;;;;;;;5046157;28;20045;-58
2023/11/10 08:09:49;;;;;;;1.33;0.98;;;;;;;;;;5043486;28;20426;-58
2023/11/10 08:12:15;;;;;;;3.47;0.80;;;;;;;;;;5045558;28;20053;-59
2023/11/10 08:14:41;;;;;;;0.82;0.70;;;;;;;;;;5044310;28;20041;-59
2023/11/10 08:17:07;;;;;;;1.92;0.80;;;;;;;;;;5046348;28;20052;-59
2023/11/10 08:19:33;;;;;;;1.35;0.60;;;;;;;;;;5043385;28;20048;-59
2023/11/10 08:22:00;;;;;;;1.05;0.60;;;;;;;;;;5046784;28;20061;-59
2023/11/10 08:24:27;;;;;;;0.52;0.43;;;;;;;;;;5045993;28;20060;-58
2023/11/10 08:26:56;;;;;;;0.60;0.50;;;;;;;;;;5046306;28;20029;-59
2023/11/10 08:29:22;;;;;;;1.88;0.45;;;;;;;;;;5044032;28;20040;-59
2023/11/10 08:31:50;;;;;;;0.70;0.60;;;;;;;;;;5046019;28;20037;-59
2023/11/10 08:34:20;;;;;;;2.45;0.80;;;;;;;;;;5047353;28;20048;-59
2023/11/10 08:36:48;;;;;;;3.42;1.13;;;;;;;;;;5043882;28;21424;-59
2023/11/10 08:39:16;;;;;;;0.95;0.52;;;;;;;;;;5045897;28;20069;-59
2023/11/10 08:41:47;;;;;;;1.58;0.82;;;;;;;;;;5047893;28;20036;-59
2023/11/10 08:44:14;;;;;;;1.67;0.90;;;;;;;;;;5050477;28;20044;-59
2023/11/10 08:46:43;;;;;;;1.20;0.90;;;;;;;;;;5049823;28;20041;-58
2023/11/10 08:49:11;;;;;;;0.82;0.57;;;;;;;;;;5044722;28;20056;-58
2023/11/10 08:51:38;;;;;;;0.93;0.40;;;;;;;;;;5044701;28;20064;-58
2023/11/10 08:54:04;;;;;;;1.40;0.70;;;;;;;;;;5046176;28;20429;-58
2023/11/10 08:56:31;;;;;;;1.10;0.50;;;;;;;;;;5048583;28;20049;-58
2023/11/10 08:58:57;;;;;;;11.48;3.90;;;;;;;;;;5047612;28;20052;-59
2023/11/10 09:01:24;;;;;;;2.53;0.70;;;;;;;;;;5044676;28;20041;-59
2023/11/10 09:03:50;;;;;;;0.85;0.50;;;;;;;;;;5049247;28;20036;-58
2023/11/10 09:06:16;;;;;;;2.35;0.90;;;;;;;;;;5050025;28;20064;-59
2023/11/10 09:08:42;;;;;;;1.20;0.70;;;;;;;;;;5046389;28;20048;-59
2023/11/10 09:11:08;;;;;;;0.65;0.50;;;;;;;;;;5048451;28;20052;-58
2023/11/10 09:13:34;;;;;;;2.38;0.93;;;;;;;;;;5046857;28;20524;-58
2023/11/10 09:16:01;;;;;;;0.95;0.68;;;;;;;;;;5048749;28;20037;-58
2023/11/10 09:18:27;;;;;;;1.65;0.30;;;;;;;;;;5048414;28;20044;-58
2023/11/10 09:20:54;;;;;;;0.75;0.30;;;;;;;;;;5045243;28;20513;-59
2023/11/10 09:23:22;;;;;;;1.92;1.00;;;;;;;;;;5048748;28;20057;-58
2023/11/10 09:25:49;;;;;;;1.17;0.65;;;;;;;;;;5048384;28;20593;-59
2023/11/10 09:28:15;;;;;;;0.88;0.57;;;;;;;;;;5049077;28;20045;-59
2023/11/10 09:30:42;;;;;;;0.50;0.50;;;;;;;;;;5046147;28;20037;-59
2023/11/10 09:33:08;;;;;;;0.80;0.65;;;;;;;;;;5049617;28;20049;-59
2023/11/10 09:35:37;;;;;;;0.68;0.63;;;;;;;;;;5048512;28;20063;-59
2023/11/10 09:38:03;;;;;;;0.70;0.40;;;;;;;;;;5042397;28;20040;-58
2023/11/10 09:40:30;;;;;;;0.30;0.30;;;;;;;;;;5043535;28;20037;-58
2023/11/10 09:42:56;;;;;;;0.65;0.40;;;;;;;;;;5049487;28;20436;-59
2023/11/10 09:45:22;;;;;;;1.95;0.73;;;;;;;;;;5049117;28;20057;-59
2023/11/10 09:47:52;;;;;;;0.85;0.40;;;;;;;;;;5048441;28;20037;-59
2023/11/10 09:50:19;;;;;;;0.93;0.52;;;;;;;;;;5048054;28;20032;-58
2023/11/10 09:52:49;;;;;;;0.63;0.40;;;;;;;;;;5040938;28;20048;-58
2023/11/10 09:55:15;;;;;;;;;;;;;;;;;;5049635;28;20406;-58
2023/11/10 09:57:41;;;;;;;2.40;0.70;;;;;;;;;;5043142;28;19913;-58
2023/11/10 10:00:13;;;;;;;1.08;0.30;;;;;;;;;;5043568;28;20048;-58
2023/11/10 10:02:40;;;;;;;1.27;0.47;;;;;;;;;;5045235;28;20045;-58
2023/11/10 10:05:09;;;;;;;1.90;1.52;;;;;;;;;;5042806;28;20049;-58
2023/11/10 10:07:35;;;;;;;1.08;0.50;;;;;;;;;;5047169;28;20028;-59
2023/11/10 10:10:02;;;;;;;1.98;0.85;;;;;;;;;;5049150;28;20415;-59
2023/11/10 10:12:34;;;;;;;0.98;0.20;;;;;;;;;;5047119;28;20033;-58
2023/11/10 10:15:01;;;;;;;0.93;0.40;;;;;;;;;;5045852;28;20057;-59
2023/11/10 10:17:36;;;;;;;0.75;0.50;;;;;;;;;;5045378;28;20051;-59
2023/11/10 10:20:16;;;;;;;1.13;0.73;;;;;;;;;;5048697;28;20101;-59
2023/11/10 10:22:49;;;;;;;0.60;0.60;;;;;;;;;;5046538;28;20049;-59
2023/11/10 10:25:21;;;;;;;0.80;0.38;;;;;;;;;;5045211;28;20036;-60
2023/11/10 10:27:50;;;;;;;1.20;0.40;;;;;;;;;;5042742;28;20053;-60
2023/11/10 10:30:19;;;;;;;1.13;0.70;;;;;;;;;;5048994;28;20391;-59
2023/11/10 10:32:46;;;;;;;0.32;0.32;;;;;;;;;;5047813;28;20036;-59
2023/11/10 10:35:13;;;;;;;0.55;0.22;;;;;;;;;;5045160;28;20501;-59
2023/11/10 10:37:40;;;;;;;2.15;0.50;;;;;;;;;;5047699;28;20040;-59
2023/11/10 10:40:13;;;;;;;0.55;0.50;;;;;;;;;;5042359;28;20049;-60
2023/11/10 10:42:44;;;;;;;1.05;0.70;;;;;;;;;;5046464;28;20124;-58
2023/11/10 10:45:11;;;;;;;1.05;0.50;;;;;;;;;;5043034;28;20036;-58
2023/11/10 10:47:38;;;;;;;0.45;0.30;;;;;;;;;;5047703;28;20053;-59
2023/11/10 10:50:10;;;;;;;0.60;0.40;;;;;;;;;;5048172;28;20057;-59
2023/11/10 10:52:36;;;;;;;1.20;0.50;;;;;;;;;;5045267;28;20056;-59
2023/11/10 10:55:09;;;;;;;0.90;0.43;;;;;;;;;;5047926;28;20528;-59
2023/11/10 10:57:37;;;;;;;0.55;0.55;;;;;;;;;;5046304;28;20059;-59
2023/11/10 11:00:16;;;;;;;0.55;0.52;;;;;;;;;;5047671;28;20059;-58
2023/11/10 11:02:49;;;;;;;1.05;0.65;;;;;;;;;;5043974;28;20057;-58
2023/11/10 11:05:52;;;;;;;0.52;0.30;;;;;;;;;;5045499;28;20060;-59
2023/11/10 11:08:45;;;;;;;0.32;0.32;;;;;;;;;;5046493;28;20414;-59
2023/11/10 11:11:57;;;;;;;1.48;0.77;;;;;;;;;;5038194;28;20041;-59
2023/11/10 11:15:08;;;;;;;0.40;0.30;;;;;;;;;;5042861;28;20051;-58
2023/11/10 11:17:40;;;;;;;1.00;0.50;;;;;;;;;;5039839;28;20052;-59
2023/11/10 11:20:09;;;;;;;2.00;0.90;;;;;;;;;;5046220;28;20071;-58
2023/11/10 11:22:38;;;;;;;0.50;0.50;;;;;;;;;;5044668;28;20040;-58
2023/11/10 11:25:06;;;;;;;1.33;0.50;;;;;;;;;;5044458;28;20033;-58
2023/11/10 11:27:34;;;;;;;0.38;0.38;;;;;;;;;;5045886;28;20060;-59
2023/11/10 11:30:08;;;;;;;2.38;0.60;;;;;;;;;;5044019;28;20068;-57
2023/11/10 11:32:41;;;;;;;0.63;0.57;;;;;;;;;;5046629;28;20037;-59
2023/11/10 11:35:15;;;;;;;0.40;0.38;;;;;;;;;;5036226;28;20048;-58
2023/11/10 11:37:43;;;;;;;0.43;0.40;;;;;;;;;;5046358;28;20049;-58
2023/11/10 11:40:10;;;;;;;0.47;0.30;;;;;;;;;;5047067;28;20033;-58
2023/11/10 11:42:40;;;;;;;0.90;0.43;;;;;;;;;;5043319;28;20037;-58
2023/11/10 11:45:11;;;;;;;2.72;0.45;;;;;;;;;;5047328;28;20044;-59
2023/11/10 11:47:38;;;;;;;1.48;0.40;;;;;;;;;;5044915;28;20041;-59
2023/11/10 11:50:09;;;;;;;0.68;0.40;;;;;;;;;;5046060;28;20052;-59
2023/11/10 11:52:36;;;;;;;2.05;0.80;;;;;;;;;;5045341;28;20032;-59
2023/11/10 11:55:06;;;;;;;2.78;1.60;;;;;;;;;;5045757;28;20048;-59
2023/11/10 11:57:35;;;;;;;0.77;0.60;;;;;;;;;;5046360;28;20502;-59
2023/11/10 12:00:05;;;;;;;2.00;0.97;;;;;;;;;;5039319;28;20438;-59
2023/11/10 12:02:31;;;;;;;1.13;0.63;;;;;;;;;;5043825;28;20681;-59
2023/11/10 12:04:57;;;;;;;1.67;0.88;;;;;;;;;;5043924;28;20044;-59
2023/11/10 12:07:24;;;;;;;0.40;0.40;;;;;;;;;;5044308;28;20045;-59
2023/11/10 12:09:50;;;;;;;0.63;0.47;;;;;;;;;;5046041;28;20040;-59
2023/11/10 12:12:16;;;;;;;2.45;1.23;;;;;;;;;;5046027;28;20028;-59
2023/11/10 12:14:43;;;;;;;0.50;0.50;;;;;;;;;;5044791;28;20055;-59
2023/11/10 12:17:10;;;;;;;0.70;0.50;;;;;;;;;;5049731;28;20049;-59
2023/11/10 12:19:36;;;;;;;2.28;1.27;;;;;;;;;;5049336;28;20521;-59
2023/11/10 12:22:03;;;;;;;1.20;0.70;;;;;;;;;;5051403;28;20545;-59
2023/11/10 12:24:30;;;;;;;1.38;0.80;;;;;;;;;;5050801;28;20055;-59
2023/11/10 12:26:59;;;;;;;0.98;0.60;;;;;;;;;;5050118;28;20056;-59
2023/11/10 12:29:28;;;;;;;1.75;1.30;;;;;;;;;;5050501;28;20044;-59
2023/11/10 12:31:54;;;;;;;2.17;0.90;;;;;;;;;;5050958;28;20052;-59
2023/11/10 12:34:23;;;;;;;2.25;1.23;;;;;;;;;;5050976;28;20044;-59
2023/11/10 12:36:49;;;;;;;3.53;1.27;;;;;;;;;;5049588;28;20044;-59
2023/11/10 12:39:19;;;;;;;2.28;0.63;;;;;;;;;;5050650;28;20525;-58
2023/11/10 12:41:55;;;;;;;0.90;0.50;;;;;;;;;;5050182;28;20056;-59
2023/11/10 12:44:24;;;;;;;0.88;0.40;;;;;;;;;;5050855;28;20148;-58
2023/11/10 12:46:55;;;;;;;0.50;0.40;;;;;;;;;;5047593;28;20502;-58
2023/11/10 12:49:25;;;;;;;0.50;0.30;;;;;;;;;;5050408;28;20025;-60
2023/11/10 12:51:52;;;;;;;1.27;0.40;;;;;;;;;;5047523;28;20407;-58
2023/11/10 12:54:22;;;;;;;1.13;0.40;;;;;;;;;;5046156;28;20433;-60
2023/11/10 12:56:49;;;;;;;1.00;0.40;;;;;;;;;;5045557;28;20040;-58
2023/11/10 12:59:15;;;;;;;4.53;2.40;;;;;;;;;;5047808;28;20044;-59
2023/11/10 13:01:43;;;;;;;1.80;0.80;;;;;;;;;;5043408;28;20422;-58
2023/11/10 13:04:09;;;;;;;1.08;0.43;;;;;;;;;;5050091;28;20041;-60
2023/11/10 13:06:38;;;;;;;0.77;0.47;;;;;;;;;;5045296;28;20055;-60
2023/11/10 13:09:05;;;;;;;0.75;0.50;;;;;;;;;;5048431;28;20044;-59
2023/11/10 13:11:31;;;;;;;2.45;0.90;;;;;;;;;;5050252;28;20395;-59
2023/11/10 13:13:57;;;;;;;2.10;0.57;;;;;;;;;;5045420;28;20058;-59
2023/11/10 13:16:23;;;;;;;0.60;0.57;;;;;;;;;;5049704;28;20036;-59
2023/11/10 13:18:52;;;;;;;1.40;0.93;;;;;;;;;;5047826;28;20049;-59
2023/11/10 13:21:20;;;;;;;0.60;0.40;;;;;;;;;;5049324;28;20056;-59
2023/11/10 13:23:48;;;;;;;0.85;0.50;;;;;;;;;;5049248;28;20409;-59
2023/11/10 13:26:17;;;;;;;1.63;0.70;;;;;;;;;;5045815;28;20067;-59
2023/11/10 13:28:43;;;;;;;2.78;1.10;;;;;;;;;;5043201;28;20056;-59
2023/11/10 13:31:09;;;;;;;1.88;0.68;;;;;;;;;;5043199;28;20045;-59
2023/11/10 13:33:35;;;;;;;2.92;0.52;;;;;;;;;;5040606;28;20379;-59
2023/11/10 13:36:07;;;;;;;2.13;1.35;;;;;;;;;;5048749;28;20033;-58
2023/11/10 13:38:36;;;;;;;1.67;0.70;;;;;;;;;;5046116;28;20526;-60
2023/11/10 13:41:03;;;;;;;0.80;0.50;;;;;;;;;;5047781;28;20037;-59
2023/11/10 13:43:29;;;;;;;0.80;0.55;;;;;;;;;;5047626;28;20045;-59
2023/11/10 13:45:55;;;;;;;1.13;0.70;;;;;;;;;;5047168;28;20056;-59
2023/11/10 13:48:21;;;;;;;1.10;0.80;;;;;;;;;;5039050;28;20033;-59
2023/11/10 13:50:48;;;;;;;1.65;0.70;;;;;;;;;;5045592;28;20056;-59
2023/11/10 13:53:14;;;;;;;0.93;0.60;;;;;;;;;;5047201;28;20490;-59
2023/11/10 13:55:40;;;;;;;1.73;0.77;;;;;;;;;;5047120;28;20048;-59
2023/11/10 13:58:07;;;;;;;2.08;0.50;;;;;;;;;;5045117;28;20298;-59
2023/11/10 14:00:33;;;;;;;0.90;0.50;;;;;;;;;;5049499;28;20032;-59
2023/11/10 14:02:59;;;;;;;1.25;0.60;;;;;;;;;;5040731;28;20060;-59
2023/11/10 14:05:26;;;;;;;1.92;0.50;;;;;;;;;;5049502;28;20399;-59
2023/11/10 14:07:52;;;;;;;1.25;0.60;;;;;;;;;;5046631;28;20025;-60
2023/11/10 14:10:18;;;;;;;1.42;0.50;;;;;;;;;;5049733;28;20036;-59
2023/11/10 14:12:47;;;;;;;1.38;0.63;;;;;;;;;;5045711;28;20029;-59
2023/11/10 14:15:15;;;;;;;0.93;0.60;;;;;;;;;;5043415;28;20498;-58
2023/11/10 14:17:41;;;;;;;2.05;0.57;;;;;;;;;;5041962;28;20830;-59
2023/11/10 14:20:11;;;;;;;2.45;1.00;;;;;;;;;;5047687;28;20437;-60
2023/11/10 14:22:39;;;;;;;;;;;;;;;;;;5046979;28;20443;-60
2023/11/10 14:25:09;;;;;;;1.30;0.70;;;;;;;;;;5035909;28;19913;-59
2023/11/10 14:27:35;;;;;;;2.17;1.30;;;;;;;;;;5038870;28;20045;-58
2023/11/10 14:30:03;;;;;;;2.38;0.93;;;;;;;;;;5035467;28;20049;-59
2023/11/10 14:32:30;;;;;;;4.43;1.25;;;;;;;;;;5037628;28;20041;-59
2023/11/10 14:34:57;;;;;;;2.75;0.68;;;;;;;;;;5036322;28;20033;-59
2023/11/10 14:37:29;;;;;;;1.67;0.80;;;;;;;;;;5035026;28;20041;-59
2023/11/10 14:39:55;;;;;;;2.60;0.88;;;;;;;;;;5034501;28;20049;-59
2023/11/10 14:42:21;;;;;;;1.77;0.70;;;;;;;;;;5040450;28;20051;-60
2023/11/10 14:44:48;;;;;;;1.80;0.68;;;;;;;;;;5038973;28;20406;-59
2023/11/10 14:47:17;;;;;;;5.22;0.90;;;;;;;;;;5040172;28;20056;-59